createdAt,value
2023-01-29T00:04:14.062Z,86.04
2023-01-29T00:09:16.325Z,85.96
2023-01-29T00:14:18.576Z,85.79
2023-01-29T00:19:22.041Z,85.52
2023-01-29T00:24:24.680Z,85.49
2023-01-29T00:29:26.761Z,85.73
2023-01-29T00:34:29.963Z,85.65
2023-01-29T00:39:46.820Z,85.44
2023-01-29T00:44:50.528Z,85.39
2023-01-29T00:49:54.449Z,85.40
2023-01-29T00:54:58.466Z,85.63
2023-01-29T01:00:01.373Z,85.73
2023-01-29T01:05:05.589Z,85.49
2023-01-29T01:16:14.988Z,85.52
2023-01-29T01:21:18.593Z,85.17
2023-01-29T01:26:20.974Z,85.61
2023-01-29T01:31:23.261Z,85.36
2023-01-29T01:36:26.699Z,85.36
2023-01-29T01:41:30.146Z,85.37
2023-01-29T01:46:33.836Z,85.42
2023-01-29T01:51:43.392Z,85.44
2023-01-29T01:56:51.032Z,85.64
2023-01-29T02:01:54.637Z,85.59
2023-01-29T02:07:01.460Z,86.17
2023-01-29T02:12:05.827Z,85.81
2023-01-29T02:17:11.564Z,85.59
2023-01-29T02:22:45.479Z,85.75
2023-01-29T02:28:13.605Z,85.81
2023-01-29T02:33:26.251Z,85.78
2023-01-29T02:38:35.017Z,85.69
2023-01-29T02:43:46.415Z,86.02
2023-01-29T02:48:58.272Z,85.73
2023-01-29T02:54:05.278Z,85.69
2023-01-29T03:05:01.626Z,85.79
2023-01-29T03:10:09.870Z,86.20
2023-01-29T03:15:18.344Z,86.21
2023-01-29T03:20:25.002Z,86.46
2023-01-29T03:25:28.569Z,85.94
2023-01-29T03:30:35.588Z,86.46
2023-01-29T03:35:44.854Z,86.75
2023-01-29T03:40:51.288Z,86.61
2023-01-29T03:46:03.770Z,86.63
2023-01-29T03:51:16.877Z,86.64
2023-01-29T03:56:29.366Z,86.71
2023-01-29T04:01:40.993Z,86.51
2023-01-29T04:06:46.779Z,86.45
2023-01-29T04:11:55.433Z,86.56
2023-01-29T04:17:03.241Z,86.50
2023-01-29T04:22:10.598Z,86.67
2023-01-29T04:27:26.202Z,86.95
2023-01-29T04:32:37.998Z,86.83
2023-01-29T04:37:45.321Z,86.96
2023-01-29T04:42:55.242Z,86.93
2023-01-29T04:48:07.581Z,87.32
2023-01-29T04:53:15.674Z,87.13
2023-01-29T04:58:26.796Z,87.79
2023-01-29T05:03:33.637Z,88.21
2023-01-29T05:08:39.049Z,88.55
2023-01-29T05:13:42.737Z,88.88
2023-01-29T05:18:46.743Z,89.23
2023-01-29T05:24:07.142Z,89.74
2023-01-29T05:29:08.892Z,89.88
2023-01-29T05:34:12.432Z,90.08
2023-01-29T05:39:14.175Z,90.13
2023-01-29T05:44:16.706Z,90.93
2023-01-29T05:49:20.342Z,93.15
2023-01-29T05:54:22.476Z,95.29
2023-01-29T05:59:24.876Z,97.19
2023-01-29T06:04:28.344Z,99.11
2023-01-29T06:09:30.407Z,99.86
2023-01-29T06:14:32.917Z,100.00
2023-01-29T06:19:36.477Z,100.00
2023-01-29T06:24:38.550Z,100.00
2023-01-29T06:29:40.734Z,100.00
2023-01-29T06:34:44.190Z,100.00
2023-01-29T06:39:46.283Z,100.00
2023-01-29T06:44:48.602Z,100.00
2023-01-29T06:49:51.716Z,100.00
2023-01-29T06:54:53.443Z,100.00
2023-01-29T06:59:55.780Z,100.00
2023-01-29T07:04:59.300Z,100.00
2023-01-29T07:10:01.468Z,100.00
2023-01-29T07:15:03.520Z,100.00
2023-01-29T07:20:08.558Z,100.00
2023-01-29T07:25:10.646Z,100.00
2023-01-29T07:30:13.888Z,100.00
2023-01-29T07:35:17.403Z,100.00
2023-01-29T07:40:19.342Z,100.00
2023-01-29T07:45:21.754Z,100.00
2023-01-29T07:50:26.320Z,100.00
2023-01-29T08:00:55.553Z,100.00
2023-01-29T08:05:59.344Z,100.00
2023-01-29T08:11:01.942Z,100.00
2023-01-29T08:16:04.857Z,100.00
2023-01-29T08:21:08.329Z,100.00
2023-01-29T08:26:10.413Z,100.00
2023-01-29T08:31:15.981Z,100.00
2023-01-29T08:36:19.173Z,100.00
2023-01-29T08:41:21.323Z,100.00
2023-01-29T08:46:23.873Z,100.00
2023-01-29T08:51:51.202Z,100.00
2023-01-29T08:56:53.048Z,100.00
2023-01-29T09:01:55.150Z,100.00
2023-01-29T09:06:58.351Z,100.00
2023-01-29T09:12:00.465Z,99.47
2023-01-29T09:17:02.221Z,98.75
2023-01-29T09:22:05.502Z,98.77
2023-01-29T09:27:07.559Z,98.05
2023-01-29T09:32:09.704Z,97.16
2023-01-29T09:37:13.710Z,96.57
2023-01-29T09:42:22.836Z,96.30
2023-01-29T09:47:27.030Z,94.82
2023-01-29T09:52:33.762Z,94.21
2023-01-29T09:57:50.381Z,92.73
2023-01-29T10:03:10.933Z,90.47
2023-01-29T10:08:34.279Z,86.82
2023-01-29T10:13:45.063Z,86.49
2023-01-29T10:19:03.898Z,85.43
2023-01-29T10:24:22.127Z,83.72
2023-01-29T10:29:25.771Z,80.09
2023-01-29T10:34:33.769Z,76.00
2023-01-29T10:39:37.319Z,77.64
2023-01-29T10:44:50.976Z,79.01
2023-01-29T10:50:13.369Z,80.49
2023-01-29T10:55:46.663Z,80.85
2023-01-29T11:00:49.572Z,80.73
2023-01-29T11:05:58.023Z,80.69
2023-01-29T11:11:07.674Z,81.01
2023-01-29T11:16:10.012Z,81.02
2023-01-29T11:21:11.705Z,80.68
2023-01-29T11:26:20.404Z,79.58
2023-01-29T11:31:25.566Z,79.41
2023-01-29T11:36:34.747Z,80.23
2023-01-29T11:41:45.319Z,80.17
2023-01-29T11:46:48.208Z,80.65
2023-01-29T11:51:54.847Z,80.12
2023-01-29T11:56:59.100Z,79.49
2023-01-29T12:02:20.984Z,78.99
2023-01-29T12:07:23.345Z,79.76
2023-01-29T12:12:32.535Z,79.92
2023-01-29T12:17:38.925Z,80.17
2023-01-29T12:22:47.103Z,80.07
2023-01-29T12:27:59.747Z,80.27
2023-01-29T12:33:10.252Z,80.09
2023-01-29T12:38:19.593Z,80.17
2023-01-29T12:43:27.436Z,80.59
2023-01-29T12:48:33.038Z,80.93
2023-01-29T12:53:42.008Z,80.71
2023-01-29T12:58:48.482Z,80.32
2023-01-29T13:04:14.784Z,80.65
2023-01-29T13:09:21.430Z,80.45
2023-01-29T13:14:48.092Z,81.52
2023-01-29T13:19:52.631Z,81.19
2023-01-29T13:25:04.136Z,81.90
2023-01-29T13:30:24.730Z,82.71
2023-01-29T13:35:26.634Z,83.04
2023-01-29T13:40:32.350Z,84.22
2023-01-29T13:51:33.414Z,85.86
2023-01-29T13:56:58.263Z,85.93
2023-01-29T14:02:24.109Z,87.71
2023-01-29T14:07:49.345Z,88.21
2023-01-29T14:12:52.771Z,88.83
2023-01-29T14:18:00.201Z,89.32
2023-01-29T14:28:32.262Z,92.24
2023-01-29T14:33:39.154Z,93.38
2023-01-29T14:38:47.991Z,93.38
2023-01-29T14:43:49.812Z,95.49
2023-01-29T14:48:53.407Z,96.86
2023-01-29T14:54:03.243Z,97.81
2023-01-29T14:59:15.429Z,98.89
2023-01-29T15:04:23.524Z,99.28
2023-01-29T15:09:36.798Z,99.55
2023-01-29T15:14:46.312Z,99.82
2023-01-29T15:19:49.999Z,99.59
2023-01-29T15:25:07.511Z,100.00
2023-01-29T15:30:15.836Z,99.72
2023-01-29T15:35:28.264Z,99.56
2023-01-29T15:40:30.598Z,99.72
2023-01-29T15:45:34.112Z,99.60
2023-01-29T15:50:41.853Z,99.37
2023-01-29T15:55:44.744Z,99.42
2023-01-29T16:00:52.525Z,99.28
2023-01-29T16:05:56.928Z,99.23
2023-01-29T16:11:01.869Z,99.26
2023-01-29T16:16:16.410Z,99.17
2023-01-29T16:21:27.714Z,98.98
2023-01-29T16:26:33.935Z,98.50
2023-01-29T16:31:37.794Z,98.00
2023-01-29T16:42:23.549Z,97.72
2023-01-29T16:47:34.455Z,97.31
2023-01-29T16:52:37.575Z,97.22
2023-01-29T16:57:40.631Z,97.44
2023-01-29T17:02:42.792Z,97.14
2023-01-29T17:07:46.691Z,97.51
2023-01-29T17:12:54.413Z,97.18
2023-01-29T17:17:56.536Z,97.03
2023-01-29T17:23:00.220Z,97.03
2023-01-29T17:28:02.932Z,96.90
2023-01-29T17:33:13.078Z,96.79
2023-01-29T17:38:25.991Z,96.36
2023-01-29T17:43:28.635Z,96.40
2023-01-29T17:48:31.889Z,95.95
2023-01-29T17:53:50.348Z,95.07
2023-01-29T17:58:52.258Z,94.84
2023-01-29T18:03:54.467Z,94.26
2023-01-29T18:08:57.778Z,93.62
2023-01-29T18:14:02.727Z,93.16
2023-01-29T18:19:21.291Z,92.53
2023-01-29T18:24:24.966Z,91.67
2023-01-29T18:29:27.192Z,92.03
2023-01-29T18:34:30.072Z,91.21
2023-01-29T18:39:33.903Z,91.25
2023-01-29T18:44:35.905Z,90.54
2023-01-29T18:49:38.034Z,90.34
2023-01-29T18:54:42.251Z,90.52
2023-01-29T18:59:44.854Z,90.71
2023-01-29T19:04:47.398Z,90.28
2023-01-29T19:09:50.541Z,89.84
2023-01-29T19:14:52.244Z,89.21
2023-01-29T19:19:54.515Z,88.55
2023-01-29T19:24:58.188Z,87.32
2023-01-29T19:30:00.483Z,87.13
2023-01-29T19:35:03.225Z,87.01
2023-01-29T19:40:08.280Z,86.68
2023-01-29T19:45:10.777Z,86.47
2023-01-29T19:50:13.385Z,86.26
2023-01-29T19:55:17.504Z,85.61
2023-01-29T20:00:20.956Z,85.42
2023-01-29T20:05:23.114Z,85.48
2023-01-29T20:10:27.139Z,85.25
2023-01-29T20:15:29.755Z,85.46
2023-01-29T20:20:32.663Z,86.23
2023-01-29T20:25:36.293Z,86.16
2023-01-29T20:30:40.037Z,86.42
2023-01-29T20:35:42.291Z,86.68
2023-01-29T20:40:45.971Z,87.12
2023-01-29T20:45:47.899Z,87.33
2023-01-29T20:50:50.162Z,87.85
2023-01-29T20:55:53.658Z,88.26
2023-01-29T21:00:55.498Z,88.51
2023-01-29T21:05:57.673Z,88.61
2023-01-29T21:11:04.438Z,88.67
2023-01-29T21:16:07.216Z,88.90
2023-01-29T21:21:09.613Z,88.80
2023-01-29T21:26:12.732Z,89.06
2023-01-29T21:31:15.039Z,88.80
2023-01-29T21:36:16.760Z,88.77
2023-01-29T21:41:20.307Z,88.51
2023-01-29T21:46:22.552Z,87.98
2023-01-29T21:51:24.741Z,87.97
2023-01-29T21:56:28.179Z,87.97
2023-01-29T22:01:37.287Z,87.75
2023-01-29T22:06:40.722Z,87.62
2023-01-29T22:11:44.285Z,86.73
2023-01-29T22:16:46.212Z,86.44
2023-01-29T22:21:48.513Z,86.05
2023-01-29T22:26:51.658Z,86.07
2023-01-29T22:31:53.429Z,85.82
2023-01-29T22:36:55.618Z,85.34
2023-01-29T22:41:59.288Z,84.97
2023-01-29T22:47:01.873Z,84.49
2023-01-29T22:52:03.907Z,84.95
2023-01-29T22:57:08.642Z,84.72
2023-01-29T23:02:11.576Z,84.64
2023-01-29T23:07:13.350Z,84.05
2023-01-29T23:12:17.309Z,83.85
2023-01-29T23:17:19.706Z,83.66
2023-01-29T23:22:22.037Z,84.32
2023-01-29T23:27:25.509Z,83.97
2023-01-29T23:32:27.588Z,83.42
2023-01-29T23:37:29.704Z,82.98
2023-01-29T23:42:32.918Z,83.13
2023-01-29T23:47:35.035Z,83.45
2023-01-29T23:52:37.156Z,83.34
2023-01-29T23:57:40.627Z,83.33
